Time;durP1;ratioP1;P1;durP2;ratioP2;P2;SDS_P1;SDS_P2;PMS_P1;PMS_P2;Temp;Humidity;BMP_temperature;BMP_pressure;BME280_temperature;BME280_humidity;BME280_pressure;Samples;Min_cycle;Max_cycle;Signal;HPM_P1;HPM_P2
2022/01/22 00:02:25;;;;;;;1.60;1.50;;;2.50;73.60;;;;;;5030033;28;20636;-88
2022/01/22 00:04:50;;;;;;;1.87;1.70;;;2.40;73.60;;;;;;5048152;28;20226;-87
2022/01/22 00:07:16;;;;;;;1.73;1.63;;;2.40;73.60;;;;;;5040895;28;20175;-88
2022/01/22 00:09:50;;;;;;;1.70;1.60;;;2.30;74.20;;;;;;5044952;28;20564;-88
2022/01/22 00:12:29;;;;;;;1.60;1.50;;;2.30;74.50;;;;;;5042757;28;20152;-88
2022/01/22 00:14:54;;;;;;;1.70;1.60;;;2.20;74.70;;;;;;5019598;28;20211;-89
2022/01/22 00:17:20;;;;;;;2.50;1.63;;;2.20;75.20;;;;;;5037469;28;20508;-88
2022/01/22 00:19:46;;;;;;;1.50;1.50;;;2.20;75.20;;;;;;5018869;28;20593;-88
2022/01/22 00:22:11;;;;;;;2.83;1.77;;;2.10;75.30;;;;;;5018649;28;20214;-88
2022/01/22 00:24:39;;;;;;;1.67;1.57;;;2.10;75.10;;;;;;5018521;28;20231;-87
2022/01/22 00:27:06;;;;;;;1.83;1.73;;;2.10;75.10;;;;;;5036355;28;20164;-88
2022/01/22 00:29:31;;;;;;;1.73;1.63;;;2.00;75.70;;;;;;5035948;28;20208;-88
2022/01/22 00:31:59;;;;;;;2.30;2.10;;;1.90;75.80;;;;;;5019676;28;20574;-88
2022/01/22 00:34:24;;;;;;;1.83;1.70;;;1.90;76.50;;;;;;5036701;28;20196;-88
2022/01/22 00:36:50;;;;;;;2.07;1.83;;;1.80;76.40;;;;;;5018821;28;20218;-88
2022/01/22 00:39:16;;;;;;;2.27;1.93;;;1.90;76.60;;;;;;5036832;28;20226;-88
2022/01/22 00:41:42;;;;;;;1.90;1.80;;;1.90;76.90;;;;;;5018145;28;20290;-89
2022/01/22 00:44:07;;;;;;;2.10;1.90;;;1.80;77.00;;;;;;5036223;28;20594;-88
2022/01/22 00:46:33;;;;;;;3.17;1.97;;;1.80;77.00;;;;;;5036191;28;20253;-88
2022/01/22 00:48:59;;;;;;;2.27;2.17;;;1.70;77.20;;;;;;5018262;28;20215;-89
2022/01/22 00:51:24;;;;;;;2.83;2.07;;;1.60;77.60;;;;;;5037851;28;20635;-89
2022/01/22 00:53:51;;;;;;;2.00;1.90;;;1.70;77.70;;;;;;5036547;28;20255;-89
2022/01/22 00:56:16;;;;;;;2.10;2.00;;;1.70;77.40;;;;;;5019944;28;20172;-88
2022/01/22 00:58:42;;;;;;;2.00;1.90;;;1.60;77.50;;;;;;5038021;28;20537;-89
2022/01/22 01:01:08;;;;;;;3.93;2.23;;;1.60;77.90;;;;;;5046913;28;20265;-89
2022/01/22 01:03:34;;;;;;;2.10;2.00;;;1.50;77.90;;;;;;5038174;28;20165;-88
2022/01/22 01:06:02;;;;;;;2.97;2.30;;;1.50;78.40;;;;;;5043072;28;20234;-88
2022/01/22 01:08:29;;;;;;;2.30;2.10;;;1.40;78.30;;;;;;5019392;28;20207;-89
2022/01/22 01:10:55;;;;;;;2.30;2.10;;;1.50;78.40;;;;;;5037413;28;20215;-88
2022/01/22 01:13:22;;;;;;;2.73;2.53;;;1.40;77.80;;;;;;5035174;28;20176;-88
2022/01/22 01:32:33;;;;;;;2.00;1.90;;;1.30;78.30;;;;;;5055322;28;20170;-88
2022/01/22 01:34:58;;;;;;;1.93;1.83;;;1.40;79.00;;;;;;5037790;28;20185;-88
2022/01/22 01:37:25;;;;;;;2.33;1.97;;;1.40;78.80;;;;;;5038679;28;20263;-88
2022/01/22 01:39:58;;;;;;;1.87;1.77;;;1.30;79.00;;;;;;5036508;28;20189;-88
2022/01/22 01:42:42;;;;;;;2.37;2.00;;;1.30;79.30;;;;;;5037124;28;20201;-89
2022/01/22 01:45:08;;;;;;;1.97;1.87;;;1.30;79.20;;;;;;5036651;28;20185;-88
2022/01/22 01:47:36;;;;;;;1.90;1.80;;;1.30;79.10;;;;;;5054480;28;20175;-87
2022/01/22 01:50:03;;;;;;;2.17;1.93;;;1.30;79.30;;;;;;5054190;28;20202;-89
2022/01/22 01:52:38;;;;;;;2.20;2.00;;;1.20;79.60;;;;;;5054138;28;20172;-87
2022/01/22 01:55:22;;;;;;;1.87;1.77;;;1.20;79.80;;;;;;5054427;28;20207;-88
2022/01/22 01:57:48;;;;;;;2.10;1.90;;;1.30;80.10;;;;;;5036601;28;20207;-87
2022/01/22 02:00:18;;;;;;;2.30;2.20;;;1.20;79.70;;;;;;5035969;28;20181;-88
2022/01/22 02:02:46;;;;;;;2.77;1.90;;;1.10;80.20;;;;;;5036895;28;20168;-88
2022/01/22 02:05:12;;;;;;;1.80;1.70;;;1.00;80.20;;;;;;5035857;28;20232;-88
2022/01/22 02:07:41;;;;;;;2.47;1.80;;;1.00;80.50;;;;;;5036251;28;20177;-88
2022/01/22 02:10:12;;;;;;;1.90;1.77;;;1.00;80.60;;;;;;5036100;28;20215;-88
2022/01/22 02:13:42;;;;;;;2.07;1.97;;;1.00;80.20;;;;;;5036075;28;20210;-88
2022/01/22 02:23:49;;;;;;;2.90;2.20;;;0.90;80.60;;;;;;5054067;28;20178;-88
2022/01/22 02:26:16;;;;;;;2.23;1.90;;;0.80;80.60;;;;;;5053270;28;20183;-88
2022/01/22 02:28:47;;;;;;;7.00;2.93;;;0.80;81.10;;;;;;5053812;28;20329;-88
2022/01/22 02:31:23;;;;;;;2.23;2.00;;;0.80;81.20;;;;;;5053545;28;20157;-88
2022/01/22 02:36:59;;;;;;;2.60;2.40;;;0.90;81.00;;;;;;5053772;28;20152;-88
2022/01/22 02:39:25;;;;;;;2.60;2.50;;;0.80;81.50;;;;;;5055405;28;20301;-88
2022/01/22 02:41:52;;;;;;;3.53;2.93;;;0.80;81.40;;;;;;5055207;28;20212;-88
2022/01/22 02:47:23;;;;;;;2.50;2.30;;;0.80;81.40;;;;;;4972695;28;20182;-88
2022/01/22 02:49:49;;;;;;;2.63;2.43;;;0.80;81.30;;;;;;4972734;28;20208;-88
2022/01/22 02:52:19;;;;;;;2.43;2.23;;;0.80;81.30;;;;;;4976061;28;20185;-88
2022/01/22 02:54:46;;;;;;;2.90;2.70;;;0.60;80.90;;;;;;4971361;28;20185;-88
2022/01/22 02:57:13;;;;;;;2.57;2.37;;;0.60;81.30;;;;;;4975656;28;20201;-88
2022/01/22 02:59:40;;;;;;;3.73;3.23;;;0.60;81.50;;;;;;4972974;28;20183;-89
2022/01/22 03:02:06;;;;;;;2.83;2.67;;;0.50;81.20;;;;;;4956143;28;20213;-88
2022/01/22 03:04:32;;;;;;;5.87;2.77;;;0.50;81.50;;;;;;4972282;28;20267;-88
2022/01/22 03:06:58;;;;;;;4.00;2.73;;;0.50;81.70;;;;;;4959393;28;20752;-89
2022/01/22 03:09:29;;;;;;;2.77;2.57;;;0.50;81.80;;;;;;4956239;28;20245;-89
2022/01/22 03:12:19;;;;;;;3.00;2.80;;;0.40;81.60;;;;;;4972317;28;20541;-88
2022/01/22 03:17:45;;;;;;;3.57;2.93;;;0.50;82.50;;;;;;4985059;28;20180;-88
2022/01/22 03:27:50;;;;;;;2.70;2.50;;;0.50;82.10;;;;;;5053660;28;20199;-88
2022/01/22 03:30:17;;;;;;;2.20;2.10;;;0.50;82.20;;;;;;5052821;28;20180;-88
2022/01/22 03:32:47;;;;;;;2.87;2.57;;;0.30;82.60;;;;;;5034605;28;20591;-88
2022/01/22 03:37:40;;;;;;;2.20;2.10;;;0.40;82.20;;;;;;5054410;28;20214;-88
2022/01/22 03:40:12;;;;;;;1.93;1.83;;;0.30;82.50;;;;;;5056639;28;20165;-88
2022/01/22 03:42:38;;;;;;;2.27;2.17;;;0.40;82.60;;;;;;5057054;28;20194;-88
2022/01/22 03:45:06;;;;;;;2.37;2.17;;;0.40;82.70;;;;;;5038875;28;20172;-88
2022/01/22 03:47:31;;;;;;;2.30;2.10;;;0.30;82.80;;;;;;5039092;28;20187;-88
2022/01/22 03:49:57;;;;;;;3.70;2.43;;;0.40;83.30;;;;;;5056986;28;20207;-87
2022/01/22 03:52:23;;;;;;;3.30;2.23;;;0.40;82.70;;;;;;5038793;28;20175;-88
2022/01/22 03:54:49;;;;;;;2.67;2.00;;;0.50;82.00;;;;;;5060027;28;20183;-88
2022/01/22 03:57:15;;;;;;;2.13;2.00;;;0.50;82.50;;;;;;5062170;28;20168;-88
2022/01/22 03:59:40;;;;;;;2.10;2.00;;;0.30;82.90;;;;;;5057690;28;20542;-88
2022/01/22 04:04:42;;;;;;;2.40;2.27;;;0.40;83.40;;;;;;5060089;28;20742;-88
2022/01/22 04:09:56;;;;;;;2.63;2.30;;;0.20;83.80;;;;;;5056868;28;20624;-87
2022/01/22 04:12:31;;;;;;;2.47;2.20;;;0.30;83.80;;;;;;5038322;28;20172;-88
2022/01/22 04:15:03;;;;;;;2.37;2.20;;;0.30;83.20;;;;;;5056718;28;20630;-88
2022/01/22 04:25:34;;;;;;;2.57;2.37;;;0.30;82.50;;;;;;5066511;28;20231;-87
2022/01/22 04:28:00;;;;;;;1.73;1.67;;;0.30;82.50;;;;;;5062963;28;20178;-88
2022/01/22 04:30:28;;;;;;;2.80;2.00;;;0.30;82.60;;;;;;5060812;28;20209;-88
2022/01/22 04:32:54;;;;;;;2.00;1.90;;;0.30;82.60;;;;;;5064793;28;20164;-88
2022/01/22 04:35:24;;;;;;;5.20;3.70;;;0.30;82.70;;;;;;5054303;28;20184;-87
2022/01/22 04:37:50;;;;;;;2.27;2.07;;;0.40;82.80;;;;;;5053416;28;20169;-88
2022/01/22 04:40:16;;;;;;;2.10;2.00;;;0.40;82.80;;;;;;5052167;28;20186;-88
2022/01/22 04:42:43;;;;;;;3.37;2.10;;;0.40;82.40;;;;;;5061684;28;20178;-88
2022/01/22 04:45:24;;;;;;;6.07;2.00;;;0.40;83.50;;;;;;5064872;28;20172;-88
2022/01/22 04:55:34;;;;;;;3.83;2.40;;;0.50;83.10;;;;;;5055676;28;20174;-88
2022/01/22 04:58:04;;;;;;;2.60;2.23;;;0.60;83.10;;;;;;5055732;28;20181;-88
2022/01/22 05:00:38;;;;;;;2.13;2.03;;;0.60;82.50;;;;;;5055315;28;20251;-88
2022/01/22 05:03:05;;;;;;;2.07;1.97;;;0.70;83.10;;;;;;5037919;28;20625;-87
2022/01/22 05:05:31;;;;;;;2.37;2.17;;;0.80;83.00;;;;;;5037601;28;20182;-89
2022/01/22 05:07:57;;;;;;;2.40;2.30;;;0.70;83.00;;;;;;5055226;28;20531;-88
2022/01/22 05:10:23;;;;;;;2.70;2.10;;;0.80;83.10;;;;;;5055239;28;20181;-88
2022/01/22 05:12:49;;;;;;;2.20;2.10;;;0.80;83.30;;;;;;5037199;28;20626;-88
2022/01/22 05:15:17;;;;;;;2.73;2.07;;;0.80;83.30;;;;;;5038011;28;20210;-88
2022/01/22 05:17:44;;;;;;;2.33;1.97;;;0.80;83.00;;;;;;5037105;28;20189;-88
2022/01/22 05:25:33;;;;;;;2.60;2.20;;;0.80;83.20;;;;;;5054623;28;20346;-88
2022/01/22 05:38:13;;;;;;;4.40;2.00;;;0.60;83.60;;;;;;5055301;28;20227;-88
2022/01/22 05:40:39;;;;;;;2.50;1.80;;;0.70;84.20;;;;;;5036411;28;20173;-88
2022/01/22 05:43:05;;;;;;;3.00;2.13;;;0.70;84.30;;;;;;5054746;28;20174;-89
2022/01/22 05:45:31;;;;;;;2.10;2.00;;;0.70;84.40;;;;;;5038440;28;20185;-88
2022/01/22 05:47:57;;;;;;;2.10;2.00;;;0.70;84.00;;;;;;5054197;28;20168;-88
2022/01/22 05:50:30;;;;;;;2.00;1.90;;;0.70;84.20;;;;;;5054076;28;20209;-88
2022/01/22 05:53:04;;;;;;;2.17;1.97;;;0.70;84.70;;;;;;5036081;28;20174;-88
2022/01/22 06:00:58;;;;;;;2.43;2.23;;;0.70;84.80;;;;;;5053901;28;20644;-88
2022/01/22 06:03:23;;;;;;;2.20;2.10;;;0.70;84.60;;;;;;5036738;28;20269;-88
2022/01/22 06:05:49;;;;;;;3.03;2.73;;;0.60;85.10;;;;;;5036182;28;20618;-88
2022/01/22 06:08:15;;;;;;;2.93;2.57;;;0.60;85.20;;;;;;5036825;28;20216;-89
2022/01/22 06:10:42;;;;;;;2.77;2.57;;;0.50;85.70;;;;;;5046617;28;20701;-88
2022/01/22 06:13:18;;;;;;;2.60;2.40;;;0.50;86.10;;;;;;5046342;28;20201;-88
2022/01/22 06:15:45;;;;;;;4.20;2.77;;;0.40;86.40;;;;;;5066622;28;20626;-88
2022/01/22 06:18:10;;;;;;;2.73;2.53;;;0.40;86.60;;;;;;5054519;28;20676;-88
2022/01/22 06:20:36;;;;;;;4.00;2.50;;;0.50;86.20;;;;;;5053526;28;20175;-88
2022/01/22 06:23:03;;;;;;;2.67;2.50;;;0.60;85.50;;;;;;5036110;28;20667;-88
2022/01/22 06:25:29;;;;;;;3.97;2.83;;;0.50;86.10;;;;;;5053642;28;20863;-88
2022/01/22 06:27:54;;;;;;;7.97;3.33;;;0.50;86.00;;;;;;5036119;28;20235;-88
2022/01/22 06:30:20;;;;;;;2.70;2.50;;;0.50;86.00;;;;;;5035716;28;20230;-88
2022/01/22 06:32:46;;;;;;;5.17;3.30;;;0.50;86.00;;;;;;5055395;28;20539;-88
2022/01/22 06:35:13;;;;;;;2.50;2.30;;;0.50;85.80;;;;;;5054040;28;20206;-88
2022/01/22 06:37:39;;;;;;;2.83;2.60;;;0.60;85.70;;;;;;5059394;28;20221;-88
2022/01/22 06:42:31;;;;;;;2.93;2.67;;;0.60;85.50;;;;;;5059872;28;20178;-88
2022/01/22 06:44:58;;;;;;;4.80;2.77;;;0.70;85.60;;;;;;5037085;28;20177;-88
2022/01/22 06:47:25;;;;;;;3.37;3.07;;;0.70;85.40;;;;;;5054447;28;20257;-88
2022/01/22 06:49:51;;;;;;;6.37;2.97;;;0.80;88.20;;;;;;5036134;28;20212;-89
2022/01/22 06:52:17;;;;;;;5.27;3.20;;;0.90;86.20;;;;;;5035947;28;20173;-88
2022/01/22 06:54:47;;;;;;;5.57;2.70;;;0.90;87.50;;;;;;5054341;28;20534;-88
2022/01/22 06:57:13;;;;;;;2.73;2.53;;;1.00;86.50;;;;;;5053955;28;20162;-88
2022/01/22 06:59:39;;;;;;;5.57;3.23;;;1.00;86.90;;;;;;5035762;28;20173;-87
2022/01/22 07:02:06;;;;;;;5.47;3.63;;;0.90;86.40;;;;;;5053035;28;20195;-87
2022/01/22 07:04:36;;;;;;;3.93;3.53;;;1.00;86.80;;;;;;5053295;28;20548;-88
2022/01/22 07:07:08;;;;;;;4.03;3.70;;;1.00;86.70;;;;;;5035751;28;20220;-87
2022/01/22 07:09:33;;;;;;;2.73;2.53;;;0.90;86.90;;;;;;5035726;28;20243;-87
2022/01/22 07:11:59;;;;;;;5.17;3.53;;;0.90;86.90;;;;;;5053148;28;20189;-88
2022/01/22 07:14:26;;;;;;;4.97;3.00;;;0.90;87.30;;;;;;5036016;28;20217;-87
2022/01/22 07:16:52;;;;;;;6.43;3.77;;;0.90;87.30;;;;;;5036504;28;20180;-87
2022/01/22 07:19:20;;;;;;;4.50;3.77;;;1.00;86.60;;;;;;5053944;28;20178;-88
2022/01/22 07:21:55;;;;;;;3.77;3.47;;;1.00;87.00;;;;;;5035582;28;20180;-88
2022/01/22 07:24:26;;;;;;;5.40;3.70;;;1.10;87.10;;;;;;5053682;28;20248;-88
2022/01/22 07:26:54;;;;;;;5.93;3.47;;;1.10;86.60;;;;;;5055671;28;20618;-89
2022/01/22 07:29:21;;;;;;;6.57;3.63;;;1.10;86.80;;;;;;5036717;28;20246;-88
2022/01/22 07:31:47;;;;;;;6.40;3.67;;;1.10;87.20;;;;;;5059227;28;20637;-88
2022/01/22 07:34:13;;;;;;;6.10;4.20;;;1.10;87.80;;;;;;5037725;28;20253;-88
2022/01/22 07:36:39;;;;;;;4.87;4.13;;;1.00;87.00;;;;;;5037307;28;20185;-89
2022/01/22 07:39:05;;;;;;;4.97;4.23;;;1.10;86.80;;;;;;5054226;28;20735;-89
2022/01/22 07:41:31;;;;;;;5.53;4.50;;;1.10;86.80;;;;;;5036381;28;20291;-88
2022/01/22 07:43:57;;;;;;;5.37;4.87;;;1.20;86.70;;;;;;5035678;28;20265;-88
2022/01/22 07:46:24;;;;;;;6.97;4.97;;;1.10;86.60;;;;;;5035039;28;20230;-88
2022/01/22 07:48:50;;;;;;;5.80;4.50;;;1.10;85.70;;;;;;5053734;28;20601;-89
2022/01/22 07:51:17;;;;;;;5.47;4.20;;;1.20;86.70;;;;;;5036272;28;20210;-88
2022/01/22 07:53:46;;;;;;;8.30;5.13;;;1.10;87.00;;;;;;5050246;28;20161;-86
2022/01/22 07:56:13;;;;;;;10.80;5.43;;;1.10;87.80;;;;;;5042386;28;20212;-87
2022/01/22 07:58:39;;;;;;;5.87;5.13;;;1.00;90.70;;;;;;5044067;28;20174;-87
2022/01/22 08:01:05;;;;;;;5.50;4.70;;;1.10;90.40;;;;;;5045328;28;20183;-86
2022/01/22 08:03:31;;;;;;;8.00;4.53;;;1.20;90.10;;;;;;5041780;28;20350;-87
2022/01/22 08:05:57;;;;;;;6.57;5.00;;;1.20;90.20;;;;;;5036365;28;20178;-88
2022/01/22 08:08:23;;;;;;;6.77;4.73;;;1.10;88.10;;;;;;5052913;28;20291;-89
2022/01/22 08:10:49;;;;;;;7.13;4.93;;;1.20;88.40;;;;;;5053279;28;20196;-88
2022/01/22 08:13:18;;;;;;;10.37;4.67;;;1.10;90.10;;;;;;5053103;28;20166;-87
2022/01/22 08:15:44;;;;;;;5.30;4.80;;;1.20;87.80;;;;;;5038531;28;20635;-88
2022/01/22 08:18:09;;;;;;;6.13;4.67;;;1.30;88.90;;;;;;5019172;28;20175;-88
2022/01/22 08:20:35;;;;;;;5.53;4.47;;;1.30;88.20;;;;;;5035272;28;20179;-87
2022/01/22 08:23:01;;;;;;;5.03;4.53;;;1.30;89.10;;;;;;5053143;28;20201;-88
2022/01/22 08:25:32;;;;;;;6.93;4.70;;;1.40;90.10;;;;;;5043793;28;20586;-88
2022/01/22 08:30:29;;;;;;;5.67;4.57;;;1.60;88.30;;;;;;5066672;28;20740;-88
2022/01/22 08:33:19;;;;;;;4.90;4.50;;;1.70;88.70;;;;;;5069551;28;20231;-88
2022/01/22 08:35:53;;;;;;;6.43;4.23;;;1.70;88.70;;;;;;5081280;28;20215;-89
2022/01/22 08:38:21;;;;;;;7.20;4.10;;;1.80;89.40;;;;;;5047269;28;20257;-88
2022/01/22 08:40:46;;;;;;;5.43;4.47;;;1.90;88.50;;;;;;5059064;28;20229;-88
2022/01/22 08:43:12;;;;;;;4.40;4.10;;;1.90;89.80;;;;;;5049311;28;20650;-88
2022/01/22 08:45:39;;;;;;;4.90;4.40;;;2.00;90.10;;;;;;5078647;28;20192;-88
2022/01/22 08:48:05;;;;;;;5.00;4.50;;;2.00;89.50;;;;;;5063490;28;20188;-89
2022/01/22 08:50:34;;;;;;;6.20;4.50;;;2.10;90.80;;;;;;5077676;28;20246;-88
2022/01/22 08:53:01;;;;;;;6.23;4.40;;;2.40;91.80;;;;;;5077776;28;20179;-88
2022/01/22 08:55:31;;;;;;;6.20;4.93;;;2.50;90.30;;;;;;5064239;28;20196;-88
2022/01/22 08:57:57;;;;;;;5.47;4.53;;;2.60;89.10;;;;;;5078437;28;20163;-88
2022/01/22 09:00:23;;;;;;;6.40;4.20;;;2.50;89.00;;;;;;5059239;28;20622;-86
2022/01/22 09:02:52;;;;;;;6.20;4.20;;;2.60;88.70;;;;;;5079271;28;20200;-87
2022/01/22 09:05:19;;;;;;;4.23;3.77;;;2.60;90.30;;;;;;5073295;28;20190;-89
2022/01/22 09:07:45;;;;;;;4.60;3.63;;;2.70;90.30;;;;;;5072522;28;20646;-89
2022/01/22 09:10:12;;;;;;;2.97;2.00;;;2.90;91.10;;;;;;5089104;28;20247;-89
2022/01/22 09:12:37;;;;;;;1.93;1.83;;;3.10;91.90;;;;;;5085623;28;20201;-87
2022/01/22 09:15:04;;;;;;;1.63;1.53;;;3.40;92.50;;;;;;5061543;28;20535;-88
2022/01/22 09:17:30;;;;;;;0.80;0.80;;;3.60;92.60;;;;;;5066384;28;20163;-89
2022/01/22 09:19:58;;;;;;;0.77;0.77;;;4.10;93.10;;;;;;5055740;28;20183;-89
2022/01/22 09:22:25;;;;;;;0.30;0.30;;;4.50;92.90;;;;;;5059300;28;20183;-89
2022/01/22 09:24:52;;;;;;;0.43;0.43;;;5.00;92.50;;;;;;5076364;28;20587;-89
2022/01/22 09:27:19;;;;;;;0.40;0.30;;;5.30;92.00;;;;;;5062405;28;20511;-88
2022/01/22 09:29:46;;;;;;;0.40;0.40;;;5.50;91.70;;;;;;5051772;28;20675;-88
2022/01/22 09:32:12;;;;;;;0.80;0.60;;;5.60;91.40;;;;;;5055282;28;20222;-88
2022/01/22 09:34:40;;;;;;;1.00;0.80;;;5.70;91.40;;;;;;5057581;28;20263;-88
2022/01/22 09:37:05;;;;;;;0.40;0.40;;;5.80;91.30;;;;;;5039532;28;20213;-87
2022/01/22 09:39:31;;;;;;;0.40;0.40;;;5.90;91.10;;;;;;5057762;28;20182;-89
2022/01/22 09:41:58;;;;;;;0.40;0.40;;;5.90;91.10;;;;;;5057980;28;20237;-87
2022/01/22 09:44:24;;;;;;;0.50;0.50;;;5.90;91.20;;;;;;5059549;28;20537;-88
2022/01/22 09:46:52;;;;;;;0.50;0.50;;;6.00;90.90;;;;;;5057401;28;20176;-89
2022/01/22 09:49:21;;;;;;;0.53;0.53;;;6.10;90.90;;;;;;5064856;28;20215;-86
2022/01/22 09:51:46;;;;;;;0.60;0.60;;;6.20;90.70;;;;;;5050004;28;20284;-87
2022/01/22 09:54:12;;;;;;;0.30;0.30;;;6.20;90.50;;;;;;5045454;28;20176;-87
2022/01/22 09:56:41;;;;;;;0.40;0.40;;;6.30;90.30;;;;;;5059779;28;20182;-86
2022/01/22 09:59:10;;;;;;;0.40;0.40;;;6.40;89.80;;;;;;5040468;28;20211;-87
2022/01/22 10:01:36;;;;;;;1.37;0.43;;;6.40;90.00;;;;;;5063881;28;20186;-88
2022/01/22 10:04:05;;;;;;;0.47;0.47;;;6.50;89.40;;;;;;5045174;28;20207;-86
2022/01/22 10:06:33;;;;;;;0.57;0.57;;;6.50;89.10;;;;;;5055753;28;20217;-86
2022/01/22 10:09:13;;;;;;;0.40;0.40;;;6.60;88.80;;;;;;5053985;28;20219;-87
2022/01/22 10:11:39;;;;;;;0.43;0.43;;;6.60;88.10;;;;;;5036565;28;20166;-86
2022/01/22 10:14:06;;;;;;;0.40;0.40;;;6.70;87.90;;;;;;5030318;28;20176;-86
2022/01/22 10:16:34;;;;;;;0.60;0.50;;;6.80;87.20;;;;;;5058824;28;20178;-87
2022/01/22 10:19:22;;;;;;;0.50;0.50;;;6.90;86.50;;;;;;5061233;28;20203;-87
2022/01/22 10:22:03;;;;;;;1.00;1.00;;;6.90;85.80;;;;;;5057007;28;20183;-86
2022/01/22 10:30:10;;;;;;;0.50;0.50;;;7.00;85.50;;;;;;5064654;28;20207;-86
2022/01/22 10:32:48;;;;;;;0.50;0.47;;;7.10;85.70;;;;;;5061659;28;20522;-85
2022/01/22 10:35:23;;;;;;;0.47;0.47;;;7.20;85.30;;;;;;5060674;28;20191;-85
2022/01/22 10:38:01;;;;;;;7.60;1.17;;;7.10;84.90;;;;;;5023255;28;20189;-85
2022/01/22 10:40:37;;;;;;;0.50;0.40;;;7.10;85.00;;;;;;5057117;28;20180;-85
2022/01/22 10:43:12;;;;;;;0.30;0.30;;;7.20;85.10;;;;;;5057398;28;20183;-86
2022/01/22 10:45:42;;;;;;;0.87;0.30;;;7.10;84.70;;;;;;5056045;28;20179;-85
2022/01/22 10:48:22;;;;;;;3.63;0.57;;;7.10;85.20;;;;;;5032475;28;20187;-86
2022/01/22 10:51:04;;;;;;;0.50;0.30;;;7.10;85.10;;;;;;5055320;28;20651;-85
2022/01/22 10:53:45;;;;;;;0.83;0.83;;;7.20;85.30;;;;;;5060245;28;20176;-85
2022/01/22 10:56:17;;;;;;;0.60;0.60;;;7.30;84.80;;;;;;5024735;28;20652;-86
2022/01/22 10:59:06;;;;;;;0.70;0.70;;;7.40;84.10;;;;;;5038311;28;20658;-86
2022/01/22 11:01:51;;;;;;;0.40;0.40;;;7.50;84.50;;;;;;5054932;28;20186;-85
2022/01/22 11:04:19;;;;;;;0.60;0.60;;;7.60;83.70;;;;;;5055421;28;20204;-84
2022/01/22 11:06:52;;;;;;;0.70;0.50;;;7.70;83.20;;;;;;5037048;28;20178;-85
2022/01/22 11:09:21;;;;;;;0.30;0.30;;;7.70;83.30;;;;;;5036948;28;20204;-85
2022/01/22 11:11:51;;;;;;;0.60;0.60;;;7.70;82.50;;;;;;5056263;28;20245;-85
2022/01/22 11:14:20;;;;;;;0.30;0.30;;;7.70;82.90;;;;;;5054441;28;20640;-86
2022/01/22 11:16:48;;;;;;;1.83;0.50;;;7.70;82.60;;;;;;5054649;28;20172;-84
2022/01/22 11:19:23;;;;;;;0.50;0.50;;;7.70;83.00;;;;;;5037397;28;20185;-86
2022/01/22 11:21:53;;;;;;;0.30;0.30;;;7.70;83.20;;;;;;5038153;28;20181;-86
2022/01/22 11:24:22;;;;;;;0.60;0.60;;;7.70;82.80;;;;;;5054962;28;20259;-85
2022/01/22 11:26:54;;;;;;;0.43;0.43;;;7.70;83.20;;;;;;5054062;28;20485;-86
2022/01/22 11:29:31;;;;;;;5.93;0.23;;;7.60;82.50;;;;;;5055257;28;20201;-85
2022/01/22 11:32:02;;;;;;;0.60;0.60;;;7.70;82.30;;;;;;5036946;28;20166;-86
2022/01/22 11:34:31;;;;;;;0.53;0.53;;;7.70;82.00;;;;;;5055964;28;20217;-85
2022/01/22 11:37:02;;;;;;;0.40;0.40;;;7.70;81.90;;;;;;5056181;28;20715;-85
2022/01/22 11:39:28;;;;;;;0.40;0.40;;;7.70;82.00;;;;;;5054891;28;20649;-85
2022/01/22 11:41:58;;;;;;;0.67;0.67;;;7.70;82.30;;;;;;5054617;28;20578;-87
2022/01/22 11:44:50;;;;;;;0.60;0.60;;;7.70;81.90;;;;;;5055580;28;20185;-86
2022/01/22 11:47:22;;;;;;;0.50;0.50;;;7.60;80.50;;;;;;5036601;28;20190;-87
2022/01/22 11:50:09;;;;;;;4.77;0.80;;;7.60;80.80;;;;;;5036107;28;20213;-86
2022/01/22 11:52:40;;;;;;;0.60;0.60;;;7.70;80.70;;;;;;5036249;28;20188;-87
2022/01/22 11:55:15;;;;;;;0.63;0.40;;;7.70;80.70;;;;;;5033666;28;20272;-87
2022/01/22 11:57:42;;;;;;;0.63;0.30;;;7.90;79.10;;;;;;5053850;28;20172;-86
2022/01/22 12:00:23;;;;;;;0.20;0.20;;;7.80;78.90;;;;;;5056796;28;20257;-86
2022/01/22 12:03:22;;;;;;;0.83;0.40;;;7.80;78.60;;;;;;5057335;28;20256;-87
2022/01/22 12:06:01;;;;;;;0.40;0.40;;;7.70;78.90;;;;;;5001550;28;20661;-86
2022/01/22 12:08:27;;;;;;;0.53;0.50;;;7.70;79.00;;;;;;5006179;28;20715;-86
2022/01/22 12:16:42;;;;;;;0.60;0.40;;;7.80;78.10;;;;;;5012167;28;20208;-87
2022/01/22 12:19:48;;;;;;;0.50;0.50;;;7.80;78.20;;;;;;5017439;28;20190;-86
2022/01/22 12:22:38;;;;;;;0.27;0.27;;;7.80;78.30;;;;;;4987261;28;20246;-86
2022/01/22 12:25:15;;;;;;;0.40;0.40;;;7.80;77.50;;;;;;4987368;28;20213;-89
2022/01/22 12:27:43;;;;;;;1.07;0.50;;;7.80;77.30;;;;;;4995434;28;20190;-89
2022/01/22 12:30:10;;;;;;;0.33;0.33;;;7.80;76.80;;;;;;4995300;28;20295;-87
2022/01/22 12:32:46;;;;;;;0.30;0.30;;;7.80;76.70;;;;;;4995235;28;20184;-90
2022/01/22 12:35:17;;;;;;;1.60;0.57;;;7.90;76.50;;;;;;4987118;28;20197;-87
2022/01/22 12:37:51;;;;;;;0.60;0.60;;;8.00;75.40;;;;;;4995904;28;20186;-86
2022/01/22 12:40:28;;;;;;;0.50;0.50;;;8.10;74.80;;;;;;4997510;28;20302;-86
2022/01/22 12:43:04;;;;;;;0.50;0.50;;;8.00;74.40;;;;;;5055078;28;20233;-87
2022/01/22 12:45:30;;;;;;;0.30;0.30;;;8.00;74.10;;;;;;5065495;28;20179;-86
2022/01/22 12:47:56;;;;;;;1.97;0.60;;;8.10;73.60;;;;;;5068279;28;20224;-87
2022/01/22 12:50:28;;;;;;;0.47;0.47;;;8.20;73.70;;;;;;5077200;28;20212;-85
2022/01/22 12:52:54;;;;;;;0.30;0.30;;;8.30;73.90;;;;;;5075905;28;20156;-87
2022/01/22 12:55:27;;;;;;;0.33;0.33;;;8.30;73.80;;;;;;5068159;28;20272;-86
2022/01/22 12:57:53;;;;;;;1.33;0.43;;;8.40;73.50;;;;;;5037890;28;20191;-86
2022/01/22 13:00:21;;;;;;;0.50;0.50;;;8.50;72.20;;;;;;5055589;28;20661;-88
2022/01/22 13:02:50;;;;;;;1.37;0.60;;;8.50;72.20;;;;;;5055374;28;20219;-87
2022/01/22 13:05:19;;;;;;;0.40;0.40;;;8.60;72.30;;;;;;5056011;28;20223;-88
2022/01/22 13:07:56;;;;;;;0.90;0.90;;;8.60;71.00;;;;;;5038416;28;20180;-85
2022/01/22 13:10:28;;;;;;;1.57;0.57;;;8.60;71.10;;;;;;5055531;28;20195;-85
2022/01/22 13:12:56;;;;;;;0.83;0.83;;;8.70;70.50;;;;;;5037005;28;20182;-85
2022/01/22 13:15:22;;;;;;;0.50;0.50;;;8.70;70.30;;;;;;5055625;28;20170;-86
2022/01/22 13:17:55;;;;;;;1.27;0.47;;;8.70;70.50;;;;;;5055359;28;20180;-87
2022/01/22 13:20:23;;;;;;;0.60;0.50;;;8.70;70.40;;;;;;5057192;28;20164;-84
2022/01/22 13:22:49;;;;;;;0.60;0.40;;;8.70;69.70;;;;;;5056281;28;20180;-86
2022/01/22 13:25:16;;;;;;;1.90;0.60;;;8.60;70.20;;;;;;5055957;28;20589;-85
2022/01/22 13:27:43;;;;;;;0.53;0.53;;;8.50;70.70;;;;;;5056264;28;20172;-85
2022/01/22 13:30:11;;;;;;;0.60;0.60;;;8.60;70.40;;;;;;5056214;28;20227;-86
2022/01/22 13:40:41;;;;;;;0.40;0.40;;;8.50;71.50;;;;;;5060161;28;20182;-84
2022/01/22 13:49:08;;;;;;;0.43;0.43;;;8.30;70.40;;;;;;5045715;28;20562;-85
2022/01/22 13:51:34;;;;;;;0.50;0.50;;;8.10;70.70;;;;;;5063734;28;20176;-87
2022/01/22 13:54:02;;;;;;;3.63;0.70;;;8.00;70.70;;;;;;5061810;28;20700;-88
2022/01/22 13:56:57;;;;;;;0.60;0.60;;;7.90;70.70;;;;;;5058737;28;20172;-86
2022/01/22 13:59:29;;;;;;;0.50;0.50;;;7.80;70.80;;;;;;5042711;28;20208;-86
2022/01/22 14:04:48;;;;;;;0.30;0.30;;;7.80;70.20;;;;;;5035679;28;20177;-85
2022/01/22 14:07:28;;;;;;;0.30;0.30;;;7.70;70.60;;;;;;5030381;28;20170;-85
2022/01/22 14:09:57;;;;;;;0.40;0.40;;;7.60;70.40;;;;;;5036656;28;20224;-87
2022/01/22 14:12:34;;;;;;;0.40;0.40;;;7.60;70.60;;;;;;5027681;28;20175;-87
2022/01/22 14:15:05;;;;;;;0.50;0.50;;;7.50;70.60;;;;;;5034959;28;20172;-85
2022/01/22 14:17:38;;;;;;;0.50;0.50;;;7.50;70.10;;;;;;5022545;28;20182;-84
2022/01/22 14:20:10;;;;;;;0.60;0.60;;;7.40;69.50;;;;;;5043396;28;20707;-86
2022/01/22 14:22:53;;;;;;;0.50;0.50;;;7.40;70.00;;;;;;5018686;28;20177;-86
2022/01/22 14:25:19;;;;;;;0.60;0.60;;;7.40;69.30;;;;;;5049372;28;20220;-86
2022/01/22 14:28:05;;;;;;;0.70;0.70;;;7.40;69.20;;;;;;5040586;28;20218;-87
2022/01/22 14:30:36;;;;;;;1.10;1.00;;;7.30;69.50;;;;;;5055628;28;20558;-85
2022/01/22 14:33:02;;;;;;;0.40;0.40;;;7.30;69.20;;;;;;5056592;28;20238;-87
2022/01/22 14:35:28;;;;;;;0.47;0.47;;;7.20;67.60;;;;;;5038928;28;20253;-86
2022/01/22 14:38:17;;;;;;;0.53;0.53;;;7.10;67.00;;;;;;5037285;28;20183;-86
2022/01/22 14:44:02;;;;;;;1.13;0.73;;;7.10;67.00;;;;;;5057039;28;20298;-86
2022/01/22 14:46:52;;;;;;;0.77;0.77;;;7.00;67.10;;;;;;5073518;28;20172;-87
2022/01/22 14:49:43;;;;;;;0.50;0.50;;;7.00;67.90;;;;;;5069022;28;20200;-84
2022/01/22 14:52:10;;;;;;;0.40;0.40;;;7.00;66.70;;;;;;5055394;28;20202;-82
2022/01/22 14:54:42;;;;;;;1.33;1.33;;;6.90;66.40;;;;;;5058122;28;20168;-84
2022/01/22 14:57:09;;;;;;;0.67;0.67;;;6.90;66.60;;;;;;5056801;28;20164;-84
2022/01/22 14:59:37;;;;;;;0.60;0.60;;;6.80;67.10;;;;;;5055985;28;20634;-85
2022/01/22 15:02:04;;;;;;;0.87;0.70;;;6.80;66.70;;;;;;5056470;28;20176;-83
2022/01/22 15:04:31;;;;;;;0.60;0.60;;;6.80;67.00;;;;;;5055825;28;20547;-83
2022/01/22 15:06:59;;;;;;;0.60;0.60;;;6.80;67.20;;;;;;5054976;28;20176;-81
2022/01/22 15:09:27;;;;;;;1.70;0.70;;;6.80;67.30;;;;;;5055372;28;20208;-85
2022/01/22 15:11:53;;;;;;;0.70;0.70;;;6.90;67.50;;;;;;5055065;28;20170;-85
2022/01/22 15:14:19;;;;;;;1.27;0.53;;;6.70;67.90;;;;;;5056025;28;20180;-85